Weather observations for the past three days for
Nebraska City, Nebraska City Municipal Airport
Imperial (Metric)
Date Time (cdt) Wind (mph) Vis. (mi.) Weather Sky Cond. Temperature (ºF) Relative Humidity Wind Chill (°F) Heat Index (°F) Pressure Precipitation (in)
Air Dwpt 6 hour altimeter (in) sea level (mb) 1 hr 3 hr 6 hr
Max. Min.
07 02:15 SW 10 10.00 Fair CLR 45 36.1 71% 40 29.99 0.0
07 01:55 SW 12 10.00 Fair CLR 46 35.8 68% 41 29.99 0.0
07 01:35 W 12 10.00 Partly Cloudy SCT090 47.3 35.2 63% 43 29.99 0.0
07 01:15 SW 10 10.00 Mostly Cloudy BKN090 48.4 34.5 59% 44 30 0.0
07 00:55 SW 8 10.00 Overcast OVC090 48.2 33.4 58.6 45.5 57% 45 30 0.0
07 00:35 SW 8 10.00 Mostly Cloudy BKN090 47.8 31.5 53% 45 30.01 0.0
07 00:15 SW 9 10.00 Partly Cloudy SCT100 47.5 30.2 51% 44 30.01 0.0
06 23:35 SW 7 10.00 Partly Cloudy SCT100 47.3 29.8 51% 44 30.01 0.0
06 23:15 SW 8 10.00 Fair CLR 47.5 29.8 51% 44 30.01 0.0
06 22:55 SW 7 10.00 Fair CLR 47.3 29.1 49% 44 30.02 0.0
06 22:35 SW 7 10.00 Fair CLR 48.7 27.3 43% 46 30.02 0.0
06 22:15 SW 5 10.00 Fair CLR 48.9 27.1 43% 48 30.02 0.0
06 21:55 SW 6 10.00 Fair CLR 50.7 26.6 39% 30.02 0.0
06 21:35 SW 5 10.00 Fair CLR 51.1 27 39% 30.01 0.0
06 20:55 W 5 10.00 Fair CLR 53.1 27 37% 30.01 0.0
06 20:35 W 5 10.00 Fair CLR 52.7 28.9 40% 30.01 0.0
06 20:15 W 5 10.00 Partly Cloudy SCT090 54.5 28.8 37% 30.01 0.0
06 19:55 W 6 10.00 Partly Cloudy SCT090 55.8 28.2 35% 30.01 0.0
06 19:35 W 8 10.00 Partly Cloudy SCT095 56.7 28 33% 30.01 0.0
06 19:15 W 8 10.00 Partly Cloudy SCT095 58.1 27.7 31% 30.01 0.0
06 18:55 NW 8 10.00 Fair CLR 58.1 27.1 61.5 54.7 31% 30.01 0.0
06 18:35 NW 15 G 21 10.00 Fair CLR 59.5 28 30% 30.02 0.0
06 18:15 NW 6 10.00 Partly Cloudy SCT095 56.3 27.7 33% 30.02 0.0
06 17:55 NW 8 10.00 Partly Cloudy SCT095 58.1 27.5 31% 30.03 0.0
06 17:35 NW 12 G 16 10.00 Partly Cloudy SCT090 60.1 27.5 29% 30.03 0.0
06 17:15 N 7 10.00 Mostly Cloudy BKN090 61 28.9 30% 30.03 0.0
06 16:55 NW 15 10.00 Overcast OVC090 60.8 28.6 29% 30.03 0.0
06 16:35 NW 6 10.00 Overcast OVC090 59.4 27 29% 30.04 0.0
06 16:15 NW 9 10.00 Mostly Cloudy BKN090 58.5 28.6 32% 30.04 0.0
06 15:55 NW 8 10.00 Partly Cloudy SCT090 57.2 26.6 31% 30.06 0.0
06 15:35 W 12 10.00 Partly Cloudy SCT090 57.9 28.8 33% 30.07 0.0
06 15:15 W 5 10.00 Partly Cloudy SCT090 58.1 28.6 32% 30.07 0.0
06 14:55 N 10 G 22 10.00 Mostly Cloudy BKN080 56.5 26.4 32% 30.08 0.0
06 14:35 NW 12 10.00 Mostly Cloudy BKN080 56.7 27.1 32% 30.08 0.0
06 14:15 NW 5 G 21 10.00 Mostly Cloudy BKN080 56.5 27.7 33% 30.08 0.0
06 13:55 NW 10 10.00 Partly Cloudy SCT080 56.3 26.4 32% 30.08 0.0
06 13:35 NW 14 G 21 10.00 Fair CLR 57.2 27.9 33% 30.09 0.0
06 13:15 NW 9 10.00 Fair CLR 55.8 27 33% 30.09 0.0
06 12:55 W 6 G 16 10.00 Partly Cloudy SCT085 55.8 26.8 56.3 41.2 33% 30.11 0.0
06 12:35 NW 10 10.00 Partly Cloudy SCT085 55.6 27.7 34% 30.11 0.0
06 12:15 W 6 10.00 Partly Cloudy SCT085 55 28 36% 30.11 0.0
06 11:55 NW 9 10.00 Partly Cloudy SCT070 54.5 26.1 33% 30.12 0.0
06 11:35 NW 7 10.00 Fair CLR 53.6 27.5 37% 30.12 0.0
06 11:15 N 12 10.00 Fair CLR 53.4 27.5 37% 30.12 0.0
06 10:55 N 14 G 18 10.00 Fair CLR 52.3 26.4 37% 30.11 0.0
06 10:35 N 10 10.00 Fair CLR 51.6 26.2 37% 30.11 0.0
06 10:15 N 3 10.00 Fair CLR 50.9 29.1 43% 30.11 0.0
06 09:55 Calm 10.00 Fair CLR 50 27.9 42% 30.12 0.0
06 09:35 N 3 10.00 Fair CLR 48.9 28 44% 30.12 0.0
06 09:15 N 6 10.00 Fair CLR 48.7 28.2 45% 47 30.11 0.0
06 08:55 N 6 10.00 Fair CLR 48.2 29.5 48% 46 30.11 0.0
06 08:35 N 5 10.00 Fair CLR 46.9 29.3 50% 45 30.11 0.0
06 08:15 N 6 10.00 Fair CLR 45.7 29.3 53% 43 30.09 0.0
06 07:55 N 7 10.00 Fair CLR 45 30.9 58% 42 30.09 0.0
06 07:35 N 6 10.00 Fair CLR 42.1 29.5 61% 39 30.07 0.0
06 07:15 N 6 10.00 Fair CLR 41.5 28.9 61% 38 30.07 0.0
06 06:55 N 8 10.00 Fair CLR 41 28.2 47.3 39.2 60% 36 30.06 0.0
06 06:35 N 7 10.00 Fair CLR 39.2 28.4 65% 35 30.04 0.0
06 06:15 N 6 10.00 Fair CLR 40.1 28 62% 37 30.04 0.0
06 05:35 NW 5 10.00 Fair CLR 41.9 29.3 61% 40 30.04 0.0
06 05:15 N 5 10.00 Fair CLR 42.6 29.3 59% 40 30.04 0.0
06 04:55 N 5 10.00 Fair CLR 43.2 29.7 59% 41 30.03 0.0
06 04:35 N 5 10.00 Fair CLR 43.7 29.5 57% 42 30.02 0.0
06 04:15 N 6 10.00 Fair CLR 43.9 29.3 57% 41 30.02 0.0
06 03:55 N 5 10.00 Fair CLR 44.2 30 57% 42 30.02 0.0
06 03:35 N 5 10.00 Fair CLR 44.8 29.8 56% 43 30.01 0.0
06 03:15 N 5 10.00 Fair CLR 44.8 30.6 58% 43 30.01 0.0
06 02:55 N 6 10.00 Partly Cloudy SCT120 45.5 30 55% 43 30.01 0.0
06 02:35 N 6 10.00 Partly Cloudy SCT120 45.5 31.1 57% 43 30 0.0
06 02:15 N 6 10.00 Mostly Cloudy BKN120 45.5 30.9 57% 43 30 0.0
06 01:55 N 6 10.00 Mostly Cloudy BKN120 46 30 54% 44 30 0.0
06 01:35 N 6 10.00 Overcast OVC120 46.4 30 53% 44 30 0.0
06 01:15 N 5 10.00 Mostly Cloudy BKN120 47.1 29.5 50% 46 30 0.0
06 00:55 N 5 10.00 Partly Cloudy SCT120 47.3 29.8 54.5 46.8 51% 46 29.99 0.0
06 00:35 N 6 10.00 Partly Cloudy SCT120 46.9 29.7 51% 45 29.99 0.0
06 00:10 N 3 10.00 Partly Cloudy SCT120 48.2 28.8 47% 29.99 0.0
05 23:55 N 3 10.00 Mostly Cloudy BKN120 48 29.8 49% 29.99 0.0
05 23:35 N 3 10.00 Mostly Cloudy BKN120 48.4 29.5 48% 29.99 0.0
05 23:15 N 5 10.00 Partly Cloudy SCT120 48.6 28.8 46% 47 29.98 0.0
05 22:55 N 6 10.00 Partly Cloudy SCT120 49.3 28.6 45% 47 29.97 0.0
05 22:35 N 7 10.00 Fair CLR 49.5 28.6 45% 47 29.97 0.0
05 22:15 N 7 10.00 Fair CLR 50 28.9 44% 48 29.96 0.0
05 21:55 N 6 10.00 Fair CLR 49.6 29.3 46% 48 29.96 0.0
05 21:35 N 5 10.00 Fair CLR 50.2 28.9 44% 29.95 0.0
05 21:15 N 8 10.00 Fair CLR 50.7 28 42% 29.94 0.0
05 20:55 N 8 10.00 Partly Cloudy SCT110 51.4 27.5 40% 29.93 0.0
05 20:35 N 9 10.00 Overcast OVC110 52.5 28 39% 29.92 0.0
05 20:15 N 12 G 22 10.00 Overcast OVC100 53.6 27.7 37% 29.92 0.0
05 19:55 N 7 10.00 Overcast OVC100 53.8 28.8 38% 29.9 0.0
05 19:35 N 9 10.00 Overcast OVC100 54.5 28.4 37% 29.9 0.0
05 19:15 N 9 10.00 Overcast OVC100 54.3 30.4 40% 29.89 0.0
05 18:55 N 7 10.00 Overcast OVC100 54.5 29.8 59.4 53.8 39% 29.89 0.0
05 18:35 N 9 10.00 Overcast OVC110 54.9 29.8 38% 29.9 0.0
05 18:15 N 14 10.00 Overcast OVC100 55.6 30.2 38% 29.89 0.0
05 17:55 N 12 10.00 Overcast OVC100 55.9 30 37% 29.89 0.0
05 17:35 N 15 G 20 10.00 Overcast OVC100 56.3 30.9 38% 29.89 0.0
05 17:15 N 12 10.00 Overcast OVC100 56.3 30.7 38% 29.89 0.0
05 16:55 N 10 10.00 Mostly Cloudy SCT070 BKN100 56.5 31.6 39% 29.89 0.0
05 16:35 N 10 G 18 10.00 Partly Cloudy SCT070 SCT120 56.5 31.1 38% 29.89 0.0
05 16:15 N 14 G 21 10.00 Partly Cloudy SCT120 57.2 31.1 37% 29.9 0.0
05 15:55 N 16 G 20 10.00 Partly Cloudy SCT070 SCT120 57.4 31.8 38% 29.9 0.0
05 15:35 N 7 10.00 Partly Cloudy SCT070 58.3 32.5 38% 29.9 0.0
05 15:15 N 14 10.00 Partly Cloudy SCT120 57.6 32.4 39% 29.9 0.0
05 14:55 N 10 G 21 10.00 Mostly Cloudy SCT100 BKN120 56.8 32.2 39% 29.92 0.0
05 14:35 N 12 10.00 Mostly Cloudy BKN100 55.8 32 41% 29.92 0.0
05 14:15 N 12 G 21 10.00 Partly Cloudy SCT090 SCT110 56.1 32 40% 29.92 0.0
05 13:55 N 13 G 18 10.00 Overcast OVC090 54.5 31.1 41% 29.93 0.0
05 13:35 N 9 G 17 10.00 Overcast OVC100 54.5 31.3 41% 29.93 0.0
05 13:15 N 8 10.00 Overcast OVC100 53.8 30.2 41% 29.94 0.0
05 12:55 N 12 G 17 10.00 Mostly Cloudy BKN100 54.5 30.4 56.5 47.5 40% 29.94 0.0
05 12:35 N 12 G 16 10.00 Partly Cloudy SCT090 SCT120 54.5 30.7 40% 29.94 0.0
05 12:15 N 12 10.00 Fair CLR 56.1 32 40% 29.94 0.0
05 11:55 N 9 10.00 Fair CLR 54.7 33.1 44% 29.94 0.0
05 11:35 N 6 10.00 Partly Cloudy SCT080 SCT090 SCT110 54.3 34.3 47% 29.93 0.0
05 11:15 N 6 10.00 Mostly Cloudy BKN110 54 34.9 49% 29.93 0.0
05 10:55 N 7 10.00 Overcast OVC110 53.4 35.8 51% 29.93 0.0
05 10:35 N 7 10.00 Overcast OVC110 52.9 37 55% 29.93 0.0
05 10:15 N 6 10.00 Overcast OVC110 52.2 37.9 59% 29.93 0.0
05 09:55 NW 6 10.00 Mostly Cloudy BKN110 52.2 38.7 60% 29.93 0.0
05 09:35 N 6 10.00 Overcast OVC100 52.2 42.4 70% 29.92 0.0
05 09:15 NW 5 10.00 Overcast OVC110 51.1 43.2 74% 29.91 0.0
05 08:55 W 3 10.00 Mostly Cloudy BKN110 50 43.5 79% 29.9 0.0
05 08:15 Calm 10.00 Overcast OVC110 48.2 44.4 87% 29.89 0.0
05 07:55 W 3 10.00 Overcast OVC110 47.7 45 90% 29.9 0.0
05 07:35 SW 3 10.00 Overcast OVC100 47.8 44.8 89% 29.89 0.0
05 07:15 Calm 10.00 Overcast OVC100 47.8 45.3 91% 29.86 0.0
05 06:55 Calm 10.00 Mostly Cloudy BKN100 47.7 43.9 52.5 47.3 87% 29.85 0.0 0.03
05 06:35 NE 3 10.00 Mostly Cloudy BKN100 47.3 44.1 89% 29.84 0.0
05 06:15 N 3 10.00 Overcast OVC100 47.5 44.1 88% 29.85 0.0
05 05:55 N 3 10.00 Overcast OVC110 47.5 45.9 94% 29.83 0.0
05 05:35 Calm 10.00 Overcast BKN090 OVC120 47.5 45.5 93% 29.84 0.0
05 04:55 Calm 10.00 Overcast SCT065 OVC080 48.2 43 82% 29.84 0.0
05 04:35 Calm 10.00 Overcast OVC080 47.7 44.8 90% 29.86 0.0
05 04:15 S 3 10.00 Light Rain OVC080 48.4 44.1 85% 29.85 0.0
05 03:55 S 3 10.00 Rain OVC080 48.4 43.3 83% 29.84 0.0 0.03
05 03:35 Calm 10.00 Light Rain OVC080 48.7 42.4 79% 29.84 0.0
05 03:15 NW 3 10.00 Overcast OVC080 48.7 41.7 77% 29.84 0.0
05 02:55 N 7 10.00 Overcast OVC080 48.4 41.5 77% 46 29.81 0.0
05 02:35 NE 5 10.00 Overcast OVC090 48.4 41.9 78% 47 29.8 0.0
05 02:15 NE 5 10.00 Overcast OVC090 48.2 41.7 78% 47 29.81 0.0
05 01:55 NE 7 10.00 Overcast OVC090 47.7 40.6 77% 45 29.8 0.0 0.03
05 01:35 NE 9 10.00 Mostly Cloudy SCT055 BKN090 BKN120 48.2 39.2 71% 45 29.81 0.0 0.03
05 01:15 N 12 G 21 10.00 Light Rain SCT075 BKN090 OVC110 48.9 39 69% 45 29.81 0.0 0.03
05 00:55 N 15 10.00 Light Rain BKN075 OVC090 53.1 34.7 72.5 53.1 50% 29.82 0.0
05 00:35 N 21 G 28 10.00 Overcast and Breezy OVC090 54.5 32.2 43% 29.8 0.0
05 00:15 N 21 G 29 10.00 Overcast and Breezy OVC100 55.2 32 41% 29.77 0.0
04 23:55 N 17 G 24 10.00 Overcast OVC100 55.6 32.4 41% 29.79 0.0
04 23:35 N 18 G 30 10.00 Overcast OVC110 55.9 32.7 42% 29.79 0.0
04 23:15 N 18 G 22 10.00 Mostly Cloudy BKN110 55.9 33.6 43% 29.79 0.0
04 22:55 NE 16 10.00 Fair CLR 56.3 34 43% 29.78 0.0
04 22:35 N 24 G 30 10.00 Partly Cloudy and Breezy SCT120 57.2 33.6 41% 29.77 0.0
04 22:15 NE 26 G 33 10.00 Fair and Windy CLR 58.1 34.7 42% 29.75 0.0
04 21:55 N 18 G 25 10.00 Fair CLR 59 34.9 41% 29.74 0.0
04 21:35 N 20 G 31 10.00 Fair CLR 59.7 34.2 38% 29.72 0.0
04 21:15 N 22 G 32 10.00 Fair and Breezy CLR 61.7 34.2 36% 29.7 0.0
04 20:55 N 22 G 32 10.00 Fair and Breezy CLR 63.3 34.7 35% 29.69 0.0
04 20:35 N 28 G 35 10.00 Fair and Windy CLR 65.1 35.1 33% 29.68 0.0
04 20:15 N 21 G 31 10.00 Fair and Breezy CLR 67.1 36 32% 29.66 0.0
04 19:55 N 25 G 31 10.00 Fair and Breezy CLR 68.2 36.1 31% 29.64 0.0
04 19:15 N 15 G 24 10.00 Fair CLR 70.9 37.6 30% 29.65 0.0
04 18:55 N 15 G 18 10.00 Fair CLR 72.7 38.3 83.3 72.7 29% 29.64 0.0
04 18:35 N 20 G 30 10.00 Fair CLR 73.8 39.7 29% 29.63 0.0
04 18:15 N 20 G 25 10.00 Fair CLR 76.6 42.4 30% 77 29.61 0.0
04 17:55 N 16 G 23 10.00 Fair CLR 76.3 44.6 32% 78 29.6 0.0
04 17:35 N 14 G 24 10.00 Fair CLR 78.1 43.3 29% 78 29.59 0.0
04 17:15 N 15 10.00 Fair CLR 79.9 44.2 28% 79 29.58 0.0
04 16:55 N 15 G 21 10.00 Fair CLR 81 45 28% 80 29.57 0.0
04 16:35 N 15 G 21 10.00 Fair CLR 81.3 45.7 29% 80 29.58 0.0
04 16:15 N 14 G 23 10.00 Fair CLR 81.5 44.8 27% 80 29.57 0.0
04 15:55 N 12 G 17 10.00 Fair CLR 81.5 43.9 27% 80 29.57 0.0
04 15:35 NW 10 10.00 Partly Cloudy SCT110 81.3 42.1 25% 80 29.57 0.0
04 15:15 N 6 G 16 10.00 Fair CLR 82.4 42.6 25% 80 29.58 0.0
04 14:55 NW 16 G 22 10.00 Partly Cloudy SCT110 82.9 43 24% 81 29.58 0.0
04 14:35 N 13 G 17 10.00 Partly Cloudy SCT110 82.8 42.1 24% 81 29.58 0.0
04 14:15 NW 12 G 21 10.00 Fair CLR 82.4 42.3 24% 80 29.58 0.0
04 13:55 N 10 10.00 Fair CLR 81 40.6 24% 79 29.58 0.0
04 13:35 N 9 G 17 10.00 Fair CLR 81 41 24% 79 29.59 0.0
04 13:15 N 12 G 17 10.00 Fair CLR 81.3 38.8 22% 80 29.59 0.0
04 12:55 N 12 G 17 10.00 Fair CLR 80.8 40.6 80.8 50.7 24% 79 29.6 0.0
04 12:35 NW 9 10.00 Fair CLR 79.3 42.8 27% 79 29.6 0.0
04 12:15 NW 8 G 17 10.00 Fair CLR 78.8 45 30% 79 29.6 0.0
04 11:55 NW 13 10.00 Fair CLR 77.7 46.8 34% 78 29.6 0.0
04 11:35 NW 8 10.00 Fair CLR 76.3 47.8 37% 78 29.61 0.0
04 11:15 NW 9 10.00 Fair CLR 74.3 48 39% 29.61 0.0
04 10:55 NW 13 10.00 Fair CLR 72.7 48.7 43% 29.61 0.0
04 10:35 NW 8 10.00 Fair CLR 70.9 48.2 45% 29.61 0.0
04 10:15 NW 10 10.00 Fair CLR 68.9 48.2 48% 29.61 0.0
04 09:55 NW 9 10.00 Fair CLR 67.1 47.5 50% 29.61 0.0
04 09:35 NW 9 10.00 Fair CLR 66.2 47.5 51% 29.61 0.0
04 09:15 W 7 10.00 Fair CLR 65.1 47.5 53% 29.61 0.0
04 08:55 Calm 10.00 Fair CLR 62.6 46 55% 29.61 0.0
04 08:35 W 3 10.00 Fair CLR 61.7 45.3 55% 29.6 0.0
04 08:15 Calm 10.00 Fair CLR 60.3 45.5 58% 29.6 0.0
04 07:55 Calm 10.00 Fair CLR 59.2 46.4 63% 29.6 0.0
04 07:35 S 7 10.00 Fair CLR 55.2 45.1 69% 29.59 0.0
04 07:15 S 8 10.00 Fair CLR 52.5 43 70% 29.59 0.0
04 06:55 S 5 10.00 Fair CLR 51.3 41.4 61.5 51.3 69% 29.59 0.0
04 06:35 Calm 10.00 Fair CLR 54.3 40.5 60% 29.6 0.0
04 06:15 Calm 10.00 Fair CLR 53.2 40.5 62% 29.6 0.0
04 05:55 Calm 10.00 Fair CLR 52 40.6 65% 29.6 0.0
04 05:35 S 3 10.00 Fair CLR 53.8 40.5 61% 29.6 0.0
04 05:15 S 7 10.00 Fair CLR 52.7 41.2 65% 29.6 0.0
04 04:55 S 9 10.00 Fair CLR 52.9 41.9 66% 29.6 0.0
04 04:35 S 8 10.00 Fair CLR 52.7 41.5 66% 29.62 0.0
04 04:15 S 7 10.00 Fair CLR 53.6 41 63% 29.63 0.0
04 03:55 S 8 10.00 Fair CLR 52 41.4 67% 29.64 0.0
04 03:35 S 7 10.00 Fair CLR 54.9 41 60% 29.64 0.0
04 03:15 S 7 10.00 Fair CLR 54.9 41 60% 29.66 0.0
04 02:55 S 7 10.00 Fair CLR 54.9 41.4 61% 29.67 0.0
04 02:35 S 7 10.00 Partly Cloudy SCT120 55 41.9 61% 29.68 0.0
Date Time (cdt) Wind (mph) Vis. (mi.) Weather Sky Cond. Air Dwpt Max. Min. Relative Humidity Wind Chill (°F) Heat Index (°F) altimeter (in) sea level (mb) 1 hr 3 hr 6 hr
6 hour
Temperature (ºF) Pressure Precipitation (in)